首页
METAR-TAF:

METAR-TAF

机场 :

Boscombe Down, 英格兰

纬度: 51-10N, 经度: 001-45W, 海拔: 124米

当前天气观测

该预报发布于1小时和0分钟前的15:50 UTC
风速15节,风向东北
温度 21°C
湿度 73%
气压 1026 hPa
能见度10公里或以上
少量云层高于2000英尺

METAR: EGDM 261550Z 04015KT 9999 FEW020 21/16 Q1026 NOSIG RMK BLU BLU

时间: 17:50 (16:50 UTC)

预报

该预报发布于3小时和0分钟前的13:50 UTC
预报有效从26日的 15点(UTC)到 26日的 18点(UTC)
风速17节,风向东北
能见度10公里或以上
少量云层高于2000英尺

TAF: EGDM 261350Z 2615/2618 04017KT 9999 FEW020

超过4000个机场的气象观测和天气预报(METAR&TAF报告)。

可查询的气象台以黄色和红色小点在地图上表示。

将鼠标移到小点上方,可查看气象台名称。

然后点击查看天气观测和预报。

如需切换地图:点击带黑十字的绿色按钮放大地图;点击带横线的绿色按钮缩小地图;或者点击绿色箭头查看邻近地区的地图。


METAR-TAF: